Time;durP1;ratioP1;P1;durP2;ratioP2;P2;SDS_P1;SDS_P2;PMS_P1;PMS_P2;Temp;Humidity;BMP_temperature;BMP_pressure;BME280_temperature;BME280_humidity;BME280_pressure;Samples;Min_cycle;Max_cycle;Signal;HPM_P1;HPM_P2
2022/06/03 00:01:25;;;;;;;3.97;2.00;;;;;;;20.26;46.96;100181.66;4362176;32;34290;-69
2022/06/03 00:04:30;;;;;;;2.35;1.87;;;;;;;19.88;47.73;100173.47;4348867;32;34239;-68
2022/06/03 00:07:04;;;;;;;2.50;1.70;;;;;;;19.71;48.42;100162.19;4362443;32;34434;-68
2022/06/03 00:10:21;;;;;;;2.20;1.73;;;;;;;19.40;49.68;100165.41;4362727;32;34134;-68
2022/06/03 00:13:26;;;;;;;2.62;1.92;;;;;;;19.64;48.52;100162.56;4356640;32;33913;-69
2022/06/03 00:16:27;;;;;;;2.12;1.85;;;;;;;19.38;49.28;100171.19;4362405;32;34189;-66
2022/06/03 00:19:11;;;;;;;2.28;1.90;;;;;;;19.04;49.81;100179.63;4347925;33;34440;-68
2022/06/03 00:21:45;;;;;;;2.40;1.80;;;;;;;19.30;49.49;100191.09;4348028;32;34800;-69
2022/06/03 00:24:21;;;;;;;2.35;1.87;;;;;;;19.57;48.30;100197.91;4362689;32;34206;-69
2022/06/03 00:27:16;;;;;;;2.05;1.85;;;;;;;19.00;49.85;100201.38;4361996;32;34606;-68
2022/06/03 00:29:50;;;;;;;;;;;;;;;18.73;50.74;100209.41;4349051;32;33659;-68
2022/06/03 00:32:55;;;;;;;3.60;2.00;;;;;;;17.66;53.17;100205.66;4362033;32;34936;-68
2022/06/03 00:35:43;;;;;;;2.08;1.75;;;;;;;18.34;51.95;100213.91;4363193;32;34210;-68
2022/06/03 00:38:18;;;;;;;2.10;1.73;;;;;;;18.95;50.49;100217.16;4364010;32;34187;-69
2022/06/03 00:40:45;;;;;;;;;;;;;;;18.85;50.25;100210.66;4351046;32;34377;-68
2022/06/03 00:43:28;;;;;;;3.78;1.90;;;;;;;19.14;49.38;100208.94;4364126;32;33951;-68
2022/06/03 00:46:20;;;;;;;2.28;1.95;;;;;;;18.61;50.69;100210.59;4350367;32;34086;-68
2022/06/03 00:48:54;;;;;;;2.95;1.75;;;;;;;18.84;50.77;100211.75;4350617;32;34338;-69
2022/06/03 00:51:29;;;;;;;2.03;1.50;;;;;;;18.95;48.62;100220.72;4363567;32;34552;-66
2022/06/03 00:54:31;;;;;;;2.05;1.70;;;;;;;19.03;48.54;100219.25;4363979;32;33972;-66
2022/06/03 00:57:35;;;;;;;2.55;1.73;;;;;;;19.04;48.65;100218.94;4363720;32;34290;-68
2022/06/03 01:00:26;;;;;;;2.87;1.83;;;;;;;19.11;48.18;100218.59;4363978;32;34267;-68
2022/06/03 01:03:44;;;;;;;1.98;1.70;;;;;;;18.69;49.61;100219.34;4363933;32;33329;-68
2022/06/03 01:06:15;;;;;;;1.95;1.60;;;;;;;18.35;50.41;100232.03;4302716;33;34016;-68
2022/06/03 01:08:43;;;;;;;3.00;1.83;;;;;;;18.30;50.36;100232.06;4347451;32;35005;-67
2022/06/03 01:11:38;;;;;;;2.40;1.73;;;;;;;18.55;50.67;100230.19;4350574;32;33642;-68
2022/06/03 01:14:27;;;;;;;1.90;1.65;;;;;;;18.43;50.75;100231.41;4363892;32;33759;-69
2022/06/03 01:17:04;;;;;;;1.85;1.50;;;;;;;18.62;50.49;100231.50;4363963;32;34577;-68
2022/06/03 01:19:55;;;;;;;2.55;1.90;;;;;;;18.78;50.41;100228.62;4363740;32;34135;-69
2022/06/03 01:22:50;;;;;;;2.05;1.52;;;;;;;18.74;50.64;100228.34;4363805;32;35069;-67
2022/06/03 01:25:21;;;;;;;2.00;1.80;;;;;;;18.76;50.75;100233.53;4363574;32;33421;-68
2022/06/03 01:28:13;;;;;;;4.90;1.95;;;;;;;18.36;51.57;100230.94;4363446;32;33966;-68
2022/06/03 01:30:57;;;;;;;2.10;1.73;;;;;;;18.22;51.98;100238.19;4363801;32;34222;-68
2022/06/03 01:33:34;;;;;;;2.75;1.75;;;;;;;18.31;52.39;100238.38;4363345;32;34261;-69
2022/06/03 01:36:28;;;;;;;2.30;1.75;;;;;;;18.38;52.00;100231.47;4363645;32;33830;-69
2022/06/03 01:39:05;;;;;;;1.58;1.48;;;;;;;18.17;52.91;100239.06;4353600;32;33571;-68
2022/06/03 01:41:33;;;;;;;3.33;2.05;;;;;;;18.29;52.12;100246.91;4362993;32;34335;-67
2022/06/03 01:44:16;;;;;;;2.72;2.00;;;;;;;18.33;52.33;100247.97;4363491;32;34208;-69
2022/06/03 01:47:15;;;;;;;1.87;1.60;;;;;;;18.24;52.61;100255.19;4362711;32;34607;-68
2022/06/03 01:50:04;;;;;;;2.08;1.70;;;;;;;17.98;53.28;100254.59;4363520;32;34916;-69
2022/06/03 01:53:10;;;;;;;1.73;1.62;;;;;;;18.23;53.18;100261.81;4363556;32;34336;-69
2022/06/03 01:56:05;;;;;;;2.83;1.80;;;;;;;18.40;52.59;100262.22;4363658;32;34908;-69
2022/06/03 01:59:09;;;;;;;2.97;1.90;;;;;;;18.20;53.47;100259.62;4362460;32;33533;-69
2022/06/03 02:02:08;;;;;;;3.15;1.90;;;;;;;18.14;53.91;100264.34;4363470;32;33975;-68
2022/06/03 02:05:13;;;;;;;2.65;1.80;;;;;;;18.20;54.05;100263.19;4363659;32;34147;-69
2022/06/03 02:07:44;;;;;;;2.78;2.10;;;;;;;18.28;53.76;100253.53;4350160;32;34187;-69
2022/06/03 02:10:33;;;;;;;3.30;1.80;;;;;;;18.49;53.37;100261.56;4363621;32;33407;-69
2022/06/03 02:13:15;;;;;;;2.67;1.80;;;;;;;18.09;54.42;100264.37;4363119;32;34984;-68
2022/06/03 02:16:06;;;;;;;2.75;2.10;;;;;;;18.11;54.42;100255.88;4363659;32;35096;-69
2022/06/03 02:18:46;;;;;;;2.85;2.03;;;;;;;18.13;54.33;100259.94;4363277;32;34311;-69
2022/06/03 02:21:35;;;;;;;2.55;2.03;;;;;;;18.30;54.04;100250.50;4363247;32;34510;-69
2022/06/03 02:24:25;;;;;;;1.87;1.62;;;;;;;18.15;54.65;100248.69;4363351;32;33834;-68
2022/06/03 02:27:06;;;;;;;2.25;1.87;;;;;;;18.17;54.54;100250.03;4363425;32;34958;-69
2022/06/03 02:33:16;;;;;;;3.10;2.10;;;;;;;18.39;53.37;100260.56;4363166;32;33627;-68
2022/06/03 02:35:47;;;;;;;3.95;2.40;;;;;;;18.28;53.42;100255.44;4363405;32;34968;-69
2022/06/03 02:38:36;;;;;;;2.15;1.80;;;;;;;18.03;54.12;100254.53;4362822;32;34088;-69
2022/06/03 02:41:45;;;;;;;1.92;1.75;;;;;;;18.38;53.79;100256.19;4363497;32;35091;-68
2022/06/03 02:44:37;;;;;;;2.87;1.95;;;;;;;18.39;53.73;100254.25;4363065;32;33532;-67
2022/06/03 02:47:23;;;;;;;2.67;2.00;;;;;;;18.13;54.56;100256.41;4349843;32;34805;-69
2022/06/03 02:50:29;;;;;;;2.53;2.20;;;;;;;17.65;55.80;100251.47;4363264;32;33943;-66
2022/06/03 02:53:17;;;;;;;2.22;1.67;;;;;;;17.96;55.63;100254.03;4363421;32;34140;-68
2022/06/03 02:56:14;;;;;;;3.15;2.08;;;;;;;17.70;56.21;100248.69;4363010;32;33784;-66
2022/06/03 02:59:06;;;;;;;3.25;2.17;;;;;;;18.23;54.58;100254.37;4327600;33;33247;-69
2022/06/03 03:01:43;;;;;;;3.17;2.20;;;;;;;18.00;55.28;100249.63;4358437;32;35046;-67
2022/06/03 03:04:19;;;;;;;3.30;2.12;;;;;;;18.15;54.83;100255.00;4348098;33;34058;-68
2022/06/03 03:07:09;;;;;;;3.28;2.28;;;;;;;18.10;55.13;100246.81;4361479;32;33451;-68
2022/06/03 03:10:15;;;;;;;2.47;2.10;;;;;;;17.61;56.87;100253.97;4363127;32;33909;-67
2022/06/03 03:13:22;;;;;;;2.87;2.28;;;;;;;17.62;56.92;100263.00;4362762;32;34208;-67
2022/06/03 03:16:04;;;;;;;3.95;2.10;;;;;;;17.66;56.88;100263.28;4363257;32;35163;-68
2022/06/03 03:19:06;;;;;;;3.12;2.42;;;;;;;18.02;55.90;100255.66;4362571;32;33686;-68
2022/06/03 03:21:56;;;;;;;2.80;2.20;;;;;;;18.30;54.80;100269.72;4349699;32;33776;-68
2022/06/03 03:24:33;;;;;;;4.57;2.28;;;;;;;18.48;54.38;100270.94;4362989;32;34924;-69
2022/06/03 03:27:19;;;;;;;3.45;2.15;;;;;;;18.36;55.37;100269.38;4362631;32;34248;-69
2022/06/03 03:29:52;;;;;;;2.92;2.22;;;;;;;18.61;54.45;100268.31;4362701;32;33692;-69
2022/06/03 03:32:28;;;;;;;2.83;2.10;;;;;;;18.98;53.68;100274.28;4349574;32;34349;-69
2022/06/03 03:35:26;;;;;;;2.25;1.90;;;;;;;19.28;52.39;100278.63;4348927;32;33986;-68
2022/06/03 03:38:05;;;;;;;2.33;2.00;;;;;;;19.38;52.60;100288.69;4362902;32;34385;-68
2022/06/03 03:40:45;;;;;;;3.35;2.53;;;;;;;19.49;52.19;100287.44;4349452;32;33741;-69
2022/06/03 03:43:37;;;;;;;3.12;2.15;;;;;;;19.83;52.47;100286.47;4361366;32;33969;-66
2022/06/03 03:46:40;;;;;;;3.17;2.30;;;;;;;19.56;53.13;100290.66;4361657;32;34227;-67
2022/06/03 03:49:17;;;;;;;4.07;2.28;;;;;;;19.95;51.31;100291.53;4347906;32;34872;-65
2022/06/03 03:52:15;;;;;;;2.90;2.03;;;;;;;20.16;51.24;100290.09;4361564;32;33766;-70
2022/06/03 03:55:17;;;;;;;2.87;2.28;;;;;;;19.79;52.99;100285.44;4361609;32;33797;-71
2022/06/03 03:58:09;;;;;;;4.22;2.28;;;;;;;20.61;51.27;100287.72;4348524;32;34084;-67
2022/06/03 04:01:03;;;;;;;3.72;2.60;;;;;;;21.23;49.50;100281.88;4361696;32;33599;-65
2022/06/03 04:04:04;;;;;;;2.50;2.00;;;;;;;21.11;50.26;100281.56;4361424;32;33819;-68
2022/06/03 04:06:41;;;;;;;2.55;2.10;;;;;;;21.57;48.24;100286.12;4361192;32;33984;-66
2022/06/03 04:09:33;;;;;;;3.05;2.72;;;;;;;21.85;49.97;100288.84;4360485;32;34028;-67
2022/06/03 04:12:12;;;;;;;3.03;2.30;;;;;;;21.29;50.11;100293.59;4360670;32;34147;-66
2022/06/03 04:14:58;;;;;;;2.58;1.87;;;;;;;22.26;47.79;100296.19;4347299;32;33528;-67
2022/06/03 04:17:55;;;;;;;3.70;2.33;;;;;;;22.32;46.96;100295.75;4357399;32;34465;-66
2022/06/03 04:20:32;;;;;;;4.53;2.25;;;;;;;22.55;48.10;100287.47;4346629;33;34088;-66
2022/06/03 04:23:27;;;;;;;4.97;2.30;;;;;;;22.68;45.83;100296.81;4346291;33;33857;-67
2022/06/03 04:26:19;;;;;;;3.03;2.12;;;;;;;22.68;46.28;100302.34;4332523;33;33568;-66
2022/06/03 04:29:34;;;;;;;3.30;2.62;;;;;;;22.41;49.06;100309.62;4344890;32;34029;-66
2022/06/03 04:32:37;;;;;;;4.12;2.33;;;;;;;22.92;47.62;100308.31;4361067;32;35045;-66
2022/06/03 04:35:32;;;;;;;2.85;2.17;;;;;;;23.03;46.23;100308.91;4360831;32;34191;-66
2022/06/03 04:38:31;;;;;;;2.65;2.05;;;;;;;23.36;45.01;100307.72;4361224;32;33276;-67
2022/06/03 04:41:10;;;;;;;3.60;2.30;;;;;;;23.26;45.91;100311.56;4356352;32;33970;-66
2022/06/03 04:44:10;;;;;;;3.80;2.60;;;;;;;23.89;44.01;100315.03;4359549;32;34170;-67
2022/06/03 04:46:47;;;;;;;2.33;2.03;;;;;;;23.18;46.26;100309.62;4347075;32;33928;-66
2022/06/03 04:49:24;;;;;;;3.25;2.40;;;;;;;22.99;46.11;100310.63;4345952;33;34468;-66
2022/06/03 04:52:10;;;;;;;3.08;2.10;;;;;;;22.53;48.25;100312.66;4345766;33;33821;-67
2022/06/03 04:54:54;;;;;;;3.20;2.28;;;;;;;22.70;48.08;100323.03;4346242;32;33921;-67
2022/06/03 04:57:43;;;;;;;2.70;2.10;;;;;;;23.36;46.70;100311.28;4360279;32;34436;-67
2022/06/03 05:00:29;;;;;;;3.20;1.92;;;;;;;23.77;45.04;100312.88;4360732;32;34516;-67
2022/06/03 05:03:33;;;;;;;3.97;2.30;;;;;;;24.21;43.60;100312.91;4359803;32;33898;-66
2022/06/03 05:06:20;;;;;;;3.93;2.20;;;;;;;24.39;43.51;100313.72;4359776;32;34253;-66
2022/06/03 05:09:26;;;;;;;2.65;2.03;;;;;;;24.37;42.29;100317.63;4360209;32;34977;-67
2022/06/03 05:12:16;;;;;;;3.05;2.33;;;;;;;25.04;42.11;100318.16;4359790;32;33577;-67
2022/06/03 05:14:56;;;;;;;2.65;2.08;;;;;;;24.91;42.45;100321.97;4356884;32;34556;-67
2022/06/03 05:17:43;;;;;;;2.67;2.12;;;;;;;24.82;42.36;100326.72;4358719;32;34203;-68
2022/06/03 05:20:13;;;;;;;3.67;2.10;;;;;;;25.23;41.08;100328.09;4360956;32;33990;-67
2022/06/03 05:22:52;;;;;;;3.12;2.22;;;;;;;25.91;39.63;100334.41;4362321;32;34569;-69
2022/06/03 05:25:23;;;;;;;3.37;2.37;;;;;;;25.28;40.57;100336.22;4348622;32;33948;-70
2022/06/03 05:28:32;;;;;;;3.90;2.20;;;;;;;25.17;41.79;100331.00;4361911;32;34932;-67
2022/06/03 05:31:31;;;;;;;3.55;2.30;;;;;;;25.30;42.62;100339.50;4354539;32;33977;-67
2022/06/03 05:34:04;;;;;;;2.58;2.17;;;;;;;25.26;38.44;100332.97;4362385;32;33678;-67
2022/06/03 05:36:42;;;;;;;3.00;2.45;;;;;;;25.05;41.61;100338.41;4362413;32;34651;-69
2022/06/03 07:32:04;;;;;;;4.30;2.15;;;;;;;27.19;33.15;100325.50;4342468;32;34806;-67
2022/06/03 07:34:50;;;;;;;3.47;2.67;;;;;;;27.36;33.27;100307.78;4357506;32;34257;-69
2022/06/03 07:37:27;;;;;;;3.12;2.50;;;;;;;26.79;34.42;100309.44;4357069;32;34978;-69
2022/06/03 07:39:59;;;;;;;2.75;2.20;;;;;;;26.37;35.32;100315.88;4361895;32;34600;-67
2022/06/03 07:42:38;;;;;;;4.78;2.10;;;;;;;27.03;32.91;100321.78;4347942;32;34885;-71
2022/06/03 07:45:15;;;;;;;2.25;2.05;;;;;;;26.53;33.19;100316.06;4361424;32;35203;-70
2022/06/03 07:47:43;;;;;;;3.05;2.10;;;;;;;26.15;34.03;100319.00;4361344;32;33996;-68
2022/06/03 07:50:15;;;;;;;3.62;2.20;;;;;;;25.93;34.73;100323.75;4361761;32;34221;-68
2022/06/03 07:52:52;;;;;;;2.58;2.10;;;;;;;26.16;33.71;100323.44;4348498;32;34889;-67
2022/06/03 07:55:22;;;;;;;2.30;1.80;;;;;;;26.09;34.15;100320.38;4349336;32;34662;-72
2022/06/03 07:57:58;;;;;;;2.87;2.15;;;;;;;25.98;34.15;100318.03;4362724;32;33922;-68
2022/06/03 08:00:26;;;;;;;3.42;2.28;;;;;;;26.42;33.81;100327.97;4349423;32;34422;-68
2022/06/03 08:03:13;;;;;;;3.10;2.25;;;;;;;26.51;33.28;100323.12;4349466;32;34972;-67
2022/06/03 08:05:43;;;;;;;2.75;2.20;;;;;;;26.34;33.70;100318.53;4362644;32;34130;-70
2022/06/03 08:11:29;;;;;;;3.12;1.95;;;;;;;26.17;34.16;100309.19;4351459;32;33719;-70
2022/06/03 08:13:59;;;;;;;2.62;2.17;;;;;;;26.16;35.04;100302.00;4362971;32;33844;-68
2022/06/03 08:16:34;;;;;;;2.53;2.03;;;;;;;25.95;34.82;100303.97;4362532;32;35064;-69
2022/06/03 08:19:10;;;;;;;3.47;2.00;;;;;;;26.73;32.85;100305.25;4349540;32;34289;-69
2022/06/03 08:21:42;;;;;;;3.37;2.10;;;;;;;26.37;33.86;100307.53;4349090;32;34906;-69
2022/06/03 08:24:16;;;;;;;2.80;2.22;;;;;;;26.63;32.28;100302.88;4349513;32;33881;-68
2022/06/03 08:26:46;;;;;;;3.67;2.15;;;;;;;26.07;33.48;100311.56;4348941;32;34214;-69
2022/06/03 08:29:29;;;;;;;2.30;1.90;;;;;;;26.52;32.36;100316.38;4362646;32;34989;-68
2022/06/03 08:31:57;;;;;;;2.62;1.85;;;;;;;26.38;32.74;100302.78;4362761;32;33739;-69
2022/06/03 08:34:27;;;;;;;2.95;1.90;;;;;;;25.76;34.30;100301.63;4349196;32;34855;-68
2022/06/03 08:36:55;;;;;;;3.25;2.37;;;;;;;25.91;34.07;100303.81;4362628;32;33592;-68
2022/06/03 08:39:26;;;;;;;2.65;1.65;;;;;;;26.66;34.20;100296.66;4360414;32;34284;-68
2022/06/03 08:42:06;;;;;;;3.00;1.83;;;;;;;27.17;32.15;100295.22;4347255;33;33597;-69
2022/06/03 08:44:55;;;;;;;2.95;2.17;;;;;;;27.02;32.31;100301.47;4334047;33;33947;-70
2022/06/03 08:47:38;;;;;;;2.45;1.90;;;;;;;27.10;30.92;100291.37;4347512;33;34280;-70
2022/06/03 08:50:26;;;;;;;3.35;2.10;;;;;;;26.91;31.99;100295.53;4347534;33;34271;-68
2022/06/03 08:52:56;;;;;;;2.55;2.10;;;;;;;27.39;30.71;100291.19;4347377;33;33716;-69
2022/06/03 08:55:49;;;;;;;5.93;2.17;;;;;;;26.52;32.66;100285.78;4347567;33;34392;-67
2022/06/03 08:58:27;;;;;;;3.28;2.17;;;;;;;26.70;33.31;100295.63;4349025;33;35111;-68
2022/06/03 09:01:17;;;;;;;2.92;2.03;;;;;;;27.36;31.80;100303.00;4335667;33;34033;-68
2022/06/03 09:03:53;;;;;;;2.05;1.85;;;;;;;26.83;31.66;100306.78;4349268;33;33792;-69
2022/06/03 09:06:46;;;;;;;4.65;2.58;;;;;;;27.39;32.99;100302.31;4349195;33;33776;-69
2022/06/03 09:09:34;;;;;;;4.20;2.30;;;;;;;27.75;31.55;100295.09;4349158;33;33927;-67
2022/06/03 09:12:17;;;;;;;2.55;2.03;;;;;;;27.57;31.87;100291.72;4335349;33;34847;-69
2022/06/03 09:14:47;;;;;;;2.30;1.90;;;;;;;27.56;31.46;100295.69;4335831;33;32959;-70
2022/06/03 09:17:43;;;;;;;2.42;1.95;;;;;;;28.09;31.53;100286.53;4349011;33;34712;-70
2022/06/03 09:20:19;;;;;;;3.80;2.65;;;;;;;27.80;31.02;100289.25;4349269;33;35010;-68
2022/06/03 09:22:48;;;;;;;2.50;2.00;;;;;;;27.04;31.54;100284.41;4332223;33;34385;-70
2022/06/03 09:25:17;;;;;;;3.37;2.45;;;;;;;26.73;34.53;100277.41;4349079;33;33886;-71
2022/06/03 09:27:46;;;;;;;3.47;2.40;;;;;;;27.64;32.58;100284.75;4335497;33;34060;-74
2022/06/03 09:30:24;;;;;;;2.72;2.00;;;;;;;27.80;31.31;100278.09;4348957;33;33978;-70
2022/06/03 09:32:52;;;;;;;2.85;2.10;;;;;;;28.19;32.07;100288.81;4349001;33;34936;-72
2022/06/03 09:35:21;;;;;;;2.22;2.00;;;;;;;27.72;31.94;100286.59;4348898;33;34704;-70
2022/06/03 09:37:53;;;;;;;2.40;1.85;;;;;;;27.18;33.04;100282.91;4335575;33;34030;-70
2022/06/03 09:40:29;;;;;;;2.55;1.95;;;;;;;27.73;31.37;100297.41;4348557;33;35174;-69
2022/06/03 09:43:01;;;;;;;2.65;2.10;;;;;;;27.96;32.05;100296.91;4334700;33;34342;-68
2022/06/03 09:45:30;;;;;;;2.95;2.40;;;;;;;27.64;32.39;100299.50;4334402;33;33094;-70
2022/06/03 09:47:59;;;;;;;3.05;2.15;;;;;;;27.63;31.93;100306.25;4334677;33;33817;-74
2022/06/03 09:50:27;;;;;;;3.12;2.12;;;;;;;27.96;31.72;100300.50;4348388;33;34803;-71
2022/06/03 09:53:22;;;;;;;2.17;1.98;;;;;;;28.01;31.96;100291.91;4348334;33;34393;-68
2022/06/03 09:55:55;;;;;;;3.03;2.30;;;;;;;28.23;31.05;100306.47;4345654;32;34533;-74
2022/06/03 09:58:29;;;;;;;2.90;2.20;;;;;;;28.38;30.71;100308.50;4348584;33;34070;-67
2022/06/03 10:00:58;;;;;;;2.28;1.87;;;;;;;28.07;32.41;100311.97;4348502;33;35023;-69
2022/06/03 10:03:26;;;;;;;3.40;2.25;;;;;;;27.60;32.44;100301.34;4348666;33;34335;-68
2022/06/03 10:05:56;;;;;;;3.05;2.00;;;;;;;27.60;32.15;100307.78;4335217;33;34009;-70
2022/06/03 10:12:48;;;;;;;2.42;2.22;;;;;;;27.10;34.22;100300.53;4348298;33;34859;-69
2022/06/03 10:14:04;;;;;;;2.67;2.15;;;;;;;28.31;33.88;100296.31;4337259;33;34850;-70
2022/06/03 10:16:32;;;;;;;2.70;2.20;;;;;;;28.86;31.53;100291.84;4348377;33;33764;-75
2022/06/03 10:19:00;;;;;;;3.17;2.35;;;;;;;29.23;30.48;100306.38;4335603;33;33961;-70
2022/06/03 10:21:30;;;;;;;3.00;2.15;;;;;;;29.46;31.56;100300.16;4348358;33;34201;-70
2022/06/03 10:24:00;;;;;;;2.78;2.00;;;;;;;29.48;30.98;100308.97;4335554;33;33967;-70
2022/06/03 10:26:52;;;;;;;4.07;2.20;;;;;;;29.85;31.26;100308.66;4335954;33;33460;-76
2022/06/03 10:29:21;;;;;;;2.67;2.12;;;;;;;29.73;29.34;100305.97;4348248;33;34076;-71
2022/06/03 10:31:59;;;;;;;2.83;1.75;;;;;;;29.66;31.70;100303.81;4348523;33;33945;-75
2022/06/03 10:34:37;;;;;;;2.80;2.47;;;;;;;29.59;28.82;100298.03;4348450;33;34997;-69
2022/06/03 10:37:34;;;;;;;4.78;2.30;;;;;;;30.23;28.51;100293.03;4348569;33;33791;-76
2022/06/03 10:40:02;;;;;;;2.75;2.10;;;;;;;30.07;28.53;100283.94;4357487;32;34941;-70
2022/06/03 10:42:29;;;;;;;3.30;1.87;;;;;;;29.81;29.08;100293.78;4363148;32;34414;-68
2022/06/03 10:44:58;;;;;;;2.58;1.80;;;;;;;29.89;29.09;100289.13;4363317;32;34198;-68
2022/06/03 10:47:35;;;;;;;2.70;2.10;;;;;;;29.59;30.19;100270.91;4363317;32;33481;-66
2022/06/03 10:50:09;;;;;;;2.60;1.87;;;;;;;29.32;29.65;100271.84;4363022;32;33943;-68
2022/06/03 11:01:14;;;;;;;2.97;1.90;;;;;;;28.95;29.98;100260.97;4362855;32;33966;-71
2022/06/03 11:03:41;;;;;;;2.87;1.98;;;;;;;29.53;28.89;100268.75;4362988;32;35125;-69
2022/06/03 11:06:12;;;;;;;2.30;1.83;;;;;;;29.28;28.90;100263.38;4363308;32;34221;-69
2022/06/03 11:08:51;;;;;;;2.62;1.92;;;;;;;28.58;30.75;100262.00;4363221;32;33449;-68
2022/06/03 11:11:38;;;;;;;1.98;1.77;;;;;;;29.09;29.72;100261.31;4362995;32;34035;-70
2022/06/03 11:14:46;;;;;;;3.58;2.12;;;;;;;29.10;29.96;100250.97;4362375;32;34135;-72
2022/06/03 11:17:24;;;;;;;3.33;2.17;;;;;;;28.96;29.82;100251.38;4316311;33;34968;-68
2022/06/03 11:19:56;;;;;;;5.60;2.08;;;;;;;28.98;30.09;100249.03;4316366;33;33705;-70
2022/06/03 11:22:36;;;;;;;2.78;2.05;;;;;;;29.40;29.78;100240.91;4344310;32;33861;-69
2022/06/03 11:25:25;;;;;;;2.05;1.70;;;;;;;29.64;29.40;100239.03;4362951;32;34347;-68
2022/06/03 11:28:04;;;;;;;1.65;1.40;;;;;;;30.12;29.93;100238.84;4362662;32;34981;-67
2022/06/03 11:30:59;;;;;;;2.17;1.60;;;;;;;30.23;27.66;100235.06;4347306;32;33422;-64
2022/06/03 11:33:52;;;;;;;2.30;1.75;;;;;;;28.96;28.32;100220.66;4355775;32;33980;-67
2022/06/03 11:36:44;;;;;;;2.03;1.70;;;;;;;29.81;28.81;100221.84;4362442;32;34975;-64
2022/06/03 11:39:38;;;;;;;2.78;1.90;;;;;;;30.05;28.54;100219.94;4349788;32;34125;-66
2022/06/03 11:42:35;;;;;;;2.15;1.70;;;;;;;30.45;26.98;100218.69;4349663;32;33894;-65
2022/06/03 11:45:46;;;;;;;1.85;1.52;;;;;;;29.94;27.72;100214.13;4342342;32;33648;-65
2022/06/03 11:48:28;;;;;;;2.72;1.80;;;;;;;30.65;26.62;100203.47;4357432;32;34956;-64
2022/06/03 11:50:58;;;;;;;1.87;1.52;;;;;;;30.61;27.44;100201.81;4337901;33;33837;-65
2022/06/03 11:53:29;;;;;;;2.30;1.77;;;;;;;31.14;27.59;100204.66;4348421;32;33757;-67
2022/06/03 11:56:00;;;;;;;2.05;1.58;;;;;;;31.35;25.81;100206.19;4362715;32;33843;-67
2022/06/03 11:58:27;;;;;;;3.28;1.65;;;;;;;30.95;26.74;100193.56;4343094;32;34304;-67
2022/06/03 12:01:04;;;;;;;3.42;1.37;;;;;;;31.38;25.91;100194.19;4361266;32;34186;-66
2022/06/03 12:03:40;;;;;;;2.10;1.90;;;;;;;31.10;25.70;100192.59;4347798;32;33519;-66
2022/06/03 12:06:11;;;;;;;2.42;1.80;;;;;;;30.97;26.99;100179.97;4361422;32;34001;-64
2022/06/03 12:08:54;;;;;;;2.45;1.75;;;;;;;31.59;26.87;100183.28;4347891;32;34205;-64
2022/06/03 12:14:36;;;;;;;1.80;1.60;;;;;;;31.85;26.73;100173.97;4316365;32;33408;-64
2022/06/03 12:17:09;;;;;;;2.42;1.70;;;;;;;32.17;26.37;100175.56;4361254;32;33624;-65
2022/06/03 12:19:51;;;;;;;1.80;1.60;;;;;;;32.26;25.90;100170.44;4361326;32;34367;-65
2022/06/03 12:22:19;;;;;;;3.28;1.80;;;;;;;32.00;26.04;100160.94;4361234;32;34305;-66
2022/06/03 12:25:26;;;;;;;1.87;1.70;;;;;;;32.16;25.15;100159.91;4361312;32;33712;-65
2022/06/03 12:27:54;;;;;;;2.45;1.80;;;;;;;32.59;24.99;100155.53;4360539;32;34165;-64
2022/06/03 12:30:31;;;;;;;1.98;1.60;;;;;;;32.25;26.58;100147.19;4346778;32;33814;-61
2022/06/03 12:33:05;;;;;;;2.20;1.75;;;;;;;32.25;25.91;100138.75;4341688;32;34065;-61
2022/06/03 12:35:42;;;;;;;2.03;1.70;;;;;;;32.28;25.18;100145.59;4347955;32;33624;-65
2022/06/03 12:38:18;;;;;;;2.15;1.70;;;;;;;31.87;25.52;100145.53;4361015;32;34101;-62
2022/06/03 12:40:48;;;;;;;2.00;1.55;;;;;;;32.24;24.17;100144.75;4361001;32;34956;-62
2022/06/03 12:43:52;;;;;;;1.67;1.40;;;;;;;31.61;26.28;100149.25;4347207;32;34884;-63
2022/06/03 12:46:37;;;;;;;2.03;1.58;;;;;;;31.11;25.46;100140.16;4360992;32;33649;-65
2022/06/03 12:49:23;;;;;;;1.73;1.62;;;;;;;31.55;24.66;100136.75;4360554;32;34077;-66
2022/06/03 12:52:11;;;;;;;1.67;1.50;;;;;;;31.57;26.47;100132.37;4360916;32;35088;-66
2022/06/03 12:54:55;;;;;;;1.77;1.50;;;;;;;31.77;25.74;100123.78;4360912;32;34431;-65
2022/06/03 12:57:57;;;;;;;1.45;1.35;;;;;;;32.00;25.25;100126.47;4360377;32;33795;-65
2022/06/03 13:00:36;;;;;;;1.85;1.50;;;;;;;31.74;24.32;100130.19;4347313;32;34474;-63
2022/06/03 13:03:06;;;;;;;1.55;1.45;;;;;;;31.96;25.27;100129.19;4347472;32;33973;-62
2022/06/03 13:05:45;;;;;;;1.77;1.60;;;;;;;32.05;24.56;100131.72;4360737;32;34720;-64
2022/06/03 13:08:28;;;;;;;2.17;1.17;;;;;;;32.21;24.12;100109.84;4345283;32;33255;-61
2022/06/03 13:10:59;;;;;;;1.40;1.30;;;;;;;32.21;24.61;100109.03;4360510;32;34058;-64
2022/06/03 13:13:28;;;;;;;6.60;1.40;;;;;;;32.36;25.11;100112.78;4346864;32;34225;-62
2022/06/03 13:16:38;;;;;;;3.15;1.35;;;;;;;32.51;24.27;100108.88;4360584;32;35010;-61
2022/06/03 13:19:12;;;;;;;3.03;1.37;;;;;;;32.58;24.33;100108.16;4360624;32;33827;-66
2022/06/03 13:21:57;;;;;;;1.35;1.25;;;;;;;31.94;25.33;100100.72;4360513;32;33748;-62
2022/06/03 13:24:26;;;;;;;1.75;1.20;;;;;;;32.68;23.46;100115.88;4360486;32;35086;-65
2022/06/03 13:27:19;;;;;;;2.40;1.40;;;;;;;32.44;23.92;100112.44;4359958;32;34007;-64
2022/06/03 13:29:50;;;;;;;2.73;1.60;;;;;;;32.69;23.86;100103.41;4360307;32;34045;-62
2022/06/03 13:32:38;;;;;;;2.03;1.50;;;;;;;32.08;24.02;100108.50;4360407;32;33902;-64
2022/06/03 13:35:15;;;;;;;7.47;1.95;;;;;;;32.18;23.87;100105.00;4360375;32;33827;-66
2022/06/03 13:37:45;;;;;;;1.35;1.20;;;;;;;32.42;24.27;100098.00;4360248;32;34185;-65
2022/06/03 13:40:25;;;;;;;1.27;1.17;;;;;;;32.28;24.46;100098.66;4360147;32;33857;-65
2022/06/03 13:43:05;;;;;;;2.67;1.50;;;;;;;32.23;24.02;100104.63;4357474;32;33981;-62
2022/06/03 13:45:57;;;;;;;1.37;1.27;;;;;;;32.11;24.31;100092.91;4347495;33;33962;-62
2022/06/03 13:48:45;;;;;;;1.33;1.23;;;;;;;32.70;23.37;100093.81;4347674;33;34791;-66
2022/06/03 13:51:22;;;;;;;1.95;1.42;;;;;;;32.43;24.66;100088.34;4347692;33;34610;-66
2022/06/03 13:53:51;;;;;;;1.67;1.42;;;;;;;32.31;25.66;100076.62;4347068;32;34128;-64
2022/06/03 13:56:23;;;;;;;3.58;1.50;;;;;;;32.25;24.10;100085.41;4334026;33;35079;-63
2022/06/03 13:58:50;;;;;;;1.70;1.30;;;;;;;32.66;23.79;100079.72;4333977;33;34835;-65
2022/06/03 14:01:34;;;;;;;2.22;1.45;;;;;;;32.11;24.03;100078.84;4347067;33;33083;-66
2022/06/03 14:04:06;;;;;;;1.45;1.30;;;;;;;31.69;24.84;100080.84;4347629;33;34054;-66
2022/06/03 14:06:39;;;;;;;1.70;1.55;;;;;;;32.09;24.85;100079.25;4347581;33;33760;-66
2022/06/03 14:09:16;;;;;;;1.70;1.30;;;;;;;32.22;23.67;100074.94;4333716;33;33962;-64
2022/06/03 14:11:46;;;;;;;1.35;1.17;;;;;;;31.77;24.52;100060.09;4333947;33;33499;-65
2022/06/03 14:14:16;;;;;;;2.65;1.40;;;;;;;31.76;25.30;100060.47;4347446;33;34624;-63
2022/06/03 14:16:53;;;;;;;1.70;1.35;;;;;;;31.98;24.04;100059.50;4334006;33;33798;-64
2022/06/03 14:19:38;;;;;;;2.47;1.60;;;;;;;31.31;25.97;100062.34;4351434;32;34200;-65
2022/06/03 14:22:23;;;;;;;;;;;;;;;31.42;25.29;100069.69;4350812;32;33785;-66
2022/06/03 14:25:01;;;;;;;2.60;1.40;;;;;;;31.34;24.82;100061.56;4350227;32;34196;-64
2022/06/03 14:27:34;;;;;;;3.08;1.12;;;;;;;31.97;24.98;100057.06;4349974;32;33784;-65
2022/06/03 14:30:05;;;;;;;;;;;;;;;31.67;24.77;100060.78;4350128;32;34289;-65
2022/06/03 14:32:35;;;;;;;1.40;1.30;;;;;;;31.94;24.60;100047.41;4363613;32;33800;-65
2022/06/03 14:35:06;;;;;;;3.28;1.70;;;;;;;31.98;24.94;100048.28;4363240;32;34821;-66
2022/06/03 14:37:43;;;;;;;1.40;1.30;;;;;;;31.34;25.39;100044.75;4363121;32;34138;-63
2022/06/03 14:40:15;;;;;;;1.30;1.15;;;;;;;31.28;25.60;100041.47;4350256;32;34324;-65
2022/06/03 14:42:42;;;;;;;1.85;1.42;;;;;;;31.51;26.21;100043.34;4363414;32;33476;-63
2022/06/03 14:45:14;;;;;;;1.20;1.10;;;;;;;31.66;26.51;100043.16;4350065;32;33624;-65
2022/06/03 14:47:57;;;;;;;1.77;1.40;;;;;;;31.64;24.40;100042.72;4349835;32;34178;-64
2022/06/03 14:50:28;;;;;;;2.05;1.50;;;;;;;31.33;25.36;100037.53;4363376;32;34971;-64